KWJFKSAN

Guest
Details From KWJF - General Wm J Fox Airfield
To KSAN - San Diego Intl
Flight Number -
Tags generated
Created
Modified
Stats Distance 131 nm / 243 km
Max Altitude 15,500 ft / 4,724 m
Waypoints 3
Social Downloads 1
Likes 0
Share VATSIM

Download

Looking for another format? Having issues loading an existing format? Contact us
Advertisement - Login to hide

Notes

Basic altitude profile: - Ascent Rate: 2500ft/min - Ascent Speed: 250kts - Cruise Altitude: 21000ft - Cruise Speed: 420kts - Descent Rate: 1500ft/min - Descent Speed: 250kts Options: - Use NATs: yes - Use PACOTS: yes - Use low airways: yes - Use high airways: yes

Route

KWJF PRADO KSAN

ID Type Via Altitude Latitude Longitude Leg Dist Tot Dist Heading (true) Name
O KWJF APT - 0 ft / 0 m 34.74105˚ -118.21864˚ - 0 nm - General Wm J Fox Airfield
PRADO FIX - 15,500 ft / 4,724 m 33.92317˚ -117.78381˚ 53 nm 53 nm 156° / 156° -
O KSAN APT - 0 ft / 0 m 32.73356˚ -117.18966˚ 77 nm 131 nm 157° / 158° San Diego Intl

Altitude Profile

Advertisement - Login to hide

KWJF

Details ICAO KWJF
Name General Wm J Fox Airfield
Region United States
Timezone America/Los_Angeles (UTC-8.0)
Stats Elevation 2,351 ft / 717 m (AMSL)
Location 34.741048° -118.218641°
Runways 1
Magnetic Variation 12.124° E

METAR

KWJF 131656Z 00000KT 10SM CLR 02/M21 A3020 RMK AO2 SLP243 T00221206

Decode

TAF

TAF KWJF 131147Z 1312/1412 VRB03KT P6SM SKC FM131800 03007KT P6SM SKC FM140100 27008KT P6SM SKC

Decode

Departure Runways

ID Width Length Bearing (true) Bearing (mag) Surface Threshold Offset Overrun Length
06 151 ft / 46 m 7,188 ft / 2,191 m 71.98° 59.86° Asphalt 0 ft / 0 m 200 ft / 61 m
24 151 ft / 46 m 7,188 ft / 2,191 m 251.99° 239.87° Asphalt 0 ft / 0 m 200 ft / 61 m

KSAN

Details ICAO KSAN (SAN)
Name San Diego Intl
Region United States
Timezone America/Los_Angeles (UTC-8.0)
Stats Elevation 17 ft / 5 m (AMSL)
Location 32.733556° -117.189658°
Runways 1
Magnetic Variation 11.525° E

METAR

KSAN 131651Z 00000KT 10SM FEW250 17/01 A3004 RMK AO2 SLP172 T01720011

Decode

TAF

TAF AMD KSAN 131449Z 1315/1418 28006KT P6SM FEW250

Decode

Destination Runways

ID Width Length Bearing (true) Bearing (mag) Surface Threshold Offset Overrun Length
09 200 ft / 61 m 9,387 ft / 2,861 m 106.07° 94.54° Asphalt 699 ft / 213 m 269 ft / 82 m
27 200 ft / 61 m 9,387 ft / 2,861 m 286.08° 274.55° Asphalt 1,811 ft / 552 m 0 ft / 0 m

Approach Navaids

Runway Type Ident Frequency Range Bearing (true) Bearing (mag) Slope Elevation
09 Localiser ISAN 111.55 MHz 18 nm / 33 km 106.08° 94.55° - 17 ft / 5 m (AMSL)
09 Glidescope ISAN 111.55 MHz 10 nm / 19 km 106.08° 94.55° 3.22° 13 ft / 4 m (AMSL)
09 DME ISAN 111.55 MHz 18 nm / 33 km - - - 29 ft / 9 m (AMSL)
27 Localiser IUBR 110.90 MHz 18 nm / 33 km 286.07° 274.54° - 13 ft / 4 m (AMSL)
27 DME IUBR 110.90 MHz 18 nm / 33 km - - - 26 ft / 8 m (AMSL)